createdAt,value
2019-05-19T00:00:49.469Z,996.05
2019-05-19T00:02:00.533Z,996.06
2019-05-19T00:03:10.376Z,996.04
2019-05-19T00:04:00.650Z,996.01
2019-05-19T00:04:56.565Z,995.99
2019-05-19T00:06:08.447Z,996.00
2019-05-19T00:07:18.388Z,996.02
2019-05-19T00:08:29.663Z,995.99
2019-05-19T00:09:35.709Z,995.98
2019-05-19T00:10:31.424Z,996.03
2019-05-19T00:11:39.306Z,995.98
2019-05-19T00:12:47.607Z,995.99
2019-05-19T00:13:51.607Z,996.03
2019-05-19T00:14:48.426Z,996.02
2019-05-19T00:16:06.889Z,995.99
2019-05-19T00:17:10.681Z,996.03
2019-05-19T00:18:15.292Z,996.02
2019-05-19T00:19:26.278Z,996.02
2019-05-19T00:20:23.313Z,996.05
2019-05-19T00:21:30.469Z,996.02
2019-05-19T00:22:33.236Z,996.01
2019-05-19T00:23:36.624Z,996.00
2019-05-19T00:24:52.499Z,996.01
2019-05-19T00:25:43.396Z,996.02
2019-05-19T00:26:56.410Z,996.03
2019-05-19T00:27:55.292Z,996.01
2019-05-19T00:28:59.718Z,995.96
2019-05-19T00:30:14.246Z,995.97
2019-05-19T00:31:15.483Z,995.98
2019-05-19T00:32:13.748Z,995.97
2019-05-19T00:33:31.775Z,995.94
2019-05-19T00:34:30.714Z,995.92
2019-05-19T00:35:35.500Z,995.92
2019-05-19T00:36:46.847Z,995.93
2019-05-19T00:37:53.620Z,995.90
2019-05-19T00:38:46.864Z,995.90
2019-05-19T00:40:05.306Z,995.90
2019-05-19T00:41:12.887Z,995.90
2019-05-19T00:42:12.586Z,995.85
2019-05-19T00:43:26.725Z,995.86
2019-05-19T00:44:19.971Z,995.84
2019-05-19T00:45:51.620Z,995.79
2019-05-19T00:46:30.434Z,995.78
2019-05-19T00:47:46.820Z,995.77
2019-05-19T00:48:48.980Z,995.72
2019-05-19T00:49:52.982Z,995.72
2019-05-19T00:51:09.781Z,995.74
2019-05-19T00:52:15.011Z,995.72
2019-05-19T00:53:13.787Z,995.70
2019-05-19T00:54:12.976Z,995.72
2019-05-19T00:55:18.824Z,995.71
2019-05-19T00:56:28.860Z,995.66
2019-05-19T00:57:32.042Z,995.66
2019-05-19T00:58:46.293Z,995.63
2019-05-19T00:59:42.114Z,995.66
2019-05-19T01:01:05.040Z,995.69
2019-05-19T01:01:46.507Z,995.69
2019-05-19T01:03:07.815Z,995.70
2019-05-19T01:04:00.763Z,995.66
2019-05-19T01:05:07.111Z,995.62
2019-05-19T01:06:11.529Z,995.61
2019-05-19T01:07:17.876Z,995.63
2019-05-19T01:08:16.862Z,995.62
2019-05-19T01:09:44.436Z,995.60
2019-05-19T01:10:44.586Z,995.63
2019-05-19T01:11:45.150Z,995.63
2019-05-19T01:12:56.729Z,995.62
2019-05-19T01:13:47.927Z,995.65
2019-05-19T01:14:55.916Z,995.65
2019-05-19T01:16:13.740Z,995.64
2019-05-19T01:17:18.872Z,995.63
2019-05-19T01:18:17.850Z,995.64
2019-05-19T01:19:26.869Z,995.64
2019-05-19T01:20:26.978Z,995.66
2019-05-19T01:21:32.720Z,995.62
2019-05-19T01:22:35.088Z,995.59
2019-05-19T01:23:44.815Z,995.60
2019-05-19T01:24:48.823Z,995.59
2019-05-19T01:25:56.000Z,995.58
2019-05-19T01:26:53.131Z,995.57
2019-05-19T01:28:05.937Z,995.60
2019-05-19T01:29:28.891Z,995.56
2019-05-19T01:30:06.064Z,995.56
2019-05-19T01:31:22.054Z,995.51
2019-05-19T01:32:28.717Z,995.52
2019-05-19T01:33:19.285Z,995.51
2019-05-19T01:34:31.171Z,995.54
2019-05-19T01:35:39.060Z,995.56
2019-05-19T01:36:44.905Z,995.54
2019-05-19T01:38:04.062Z,995.59
2019-05-19T01:39:01.919Z,995.60
2019-05-19T01:39:57.748Z,995.60
2019-05-19T01:41:08.391Z,995.60
2019-05-19T01:42:24.656Z,995.63
2019-05-19T01:43:29.080Z,995.65
2019-05-19T01:44:34.006Z,995.59
2019-05-19T01:45:39.949Z,995.58
2019-05-19T01:46:39.342Z,995.59
2019-05-19T01:47:48.466Z,995.61
2019-05-19T01:48:49.186Z,995.58
2019-05-19T01:50:16.589Z,995.61
2019-05-19T01:51:04.155Z,995.58
2019-05-19T01:51:58.534Z,995.58
2019-05-19T01:53:16.048Z,995.52
2019-05-19T01:54:30.712Z,995.51
2019-05-19T01:55:25.170Z,995.50
2019-05-19T01:56:30.911Z,995.51
2019-05-19T01:57:46.901Z,995.46
2019-05-19T01:58:31.229Z,995.49
2019-05-19T01:59:47.111Z,995.48
2019-05-19T02:00:58.176Z,995.49
2019-05-19T02:02:03.101Z,995.50
2019-05-19T02:02:54.509Z,995.48
2019-05-19T02:04:12.741Z,995.47
2019-05-19T02:05:09.160Z,995.50
2019-05-19T02:06:20.126Z,995.50
2019-05-19T02:07:38.264Z,995.50
2019-05-19T02:08:25.566Z,995.51
2019-05-19T02:09:34.092Z,995.48
2019-05-19T02:10:44.216Z,995.49
2019-05-19T02:11:44.302Z,995.47
2019-05-19T02:12:45.871Z,995.43
2019-05-19T02:14:02.261Z,995.44
2019-05-19T02:14:59.296Z,995.44
2019-05-19T02:16:08.731Z,995.44
2019-05-19T02:17:07.913Z,995.43
2019-05-19T02:18:14.172Z,995.41
2019-05-19T02:19:23.305Z,995.43
2019-05-19T02:20:32.044Z,995.41
2019-05-19T02:21:32.515Z,995.43
2019-05-19T02:22:44.307Z,995.40
2019-05-19T02:23:47.584Z,995.41
2019-05-19T02:24:51.376Z,995.38
2019-05-19T02:25:54.055Z,995.37
2019-05-19T02:26:56.102Z,995.38
2019-05-19T02:28:03.378Z,995.40
2019-05-19T02:29:18.338Z,995.40
2019-05-19T02:30:15.986Z,995.40
2019-05-19T02:31:14.839Z,995.42
2019-05-19T02:32:34.353Z,995.43
2019-05-19T02:33:35.811Z,995.47
2019-05-19T02:34:33.631Z,995.45
2019-05-19T02:35:51.155Z,995.46
2019-05-19T02:36:52.075Z,995.44
2019-05-19T02:37:54.689Z,995.45
2019-05-19T02:39:02.337Z,995.43
2019-05-19T02:40:05.611Z,995.42
2019-05-19T02:41:09.205Z,995.43
2019-05-19T02:42:13.612Z,995.44
2019-05-19T02:43:18.026Z,995.40
2019-05-19T02:44:27.146Z,995.43
2019-05-19T02:45:33.091Z,995.41
2019-05-19T02:46:33.407Z,995.39
2019-05-19T02:47:48.160Z,995.37
2019-05-19T02:49:02.504Z,995.38
2019-05-19T02:49:54.113Z,995.38
2019-05-19T02:51:09.169Z,995.37
2019-05-19T02:52:13.379Z,995.37
2019-05-19T02:53:14.405Z,995.36
2019-05-19T02:54:25.166Z,995.41
2019-05-19T02:55:20.664Z,995.40
2019-05-19T02:56:30.000Z,995.36
2019-05-19T02:57:38.601Z,995.37
2019-05-19T02:58:41.783Z,995.33
2019-05-19T02:59:39.640Z,995.37
2019-05-19T03:00:48.143Z,995.41
2019-05-19T03:01:53.681Z,995.38
2019-05-19T03:03:01.060Z,995.42
2019-05-19T03:03:59.530Z,995.40
2019-05-19T03:05:17.334Z,995.38
2019-05-19T03:06:13.677Z,995.37
2019-05-19T03:07:29.660Z,995.34
2019-05-19T03:08:17.683Z,995.35
2019-05-19T03:09:33.260Z,995.34
2019-05-19T03:10:33.772Z,995.33
2019-05-19T03:11:51.085Z,995.38
2019-05-19T03:12:57.444Z,995.32
2019-05-19T03:13:59.395Z,995.33
2019-05-19T03:15:02.579Z,995.31
2019-05-19T03:16:14.155Z,995.36
2019-05-19T03:17:12.738Z,995.40
2019-05-19T03:18:20.514Z,995.38
2019-05-19T03:19:27.386Z,995.36
2019-05-19T03:20:24.119Z,995.37
2019-05-19T03:21:31.492Z,995.32
2019-05-19T03:22:47.784Z,995.34
2019-05-19T03:23:45.741Z,995.35
2019-05-19T03:24:56.501Z,995.33
2019-05-19T03:26:03.267Z,995.30
2019-05-19T03:27:18.430Z,995.30
2019-05-19T03:28:12.905Z,995.27
2019-05-19T03:29:09.235Z,995.32
2019-05-19T03:30:28.893Z,995.34
2019-05-19T03:31:32.489Z,995.38
2019-05-19T03:32:39.456Z,995.37
2019-05-19T03:33:26.762Z,995.39
2019-05-19T03:34:37.726Z,995.38
2019-05-19T03:35:45.546Z,995.39
2019-05-19T03:36:56.280Z,995.38
2019-05-19T03:38:10.209Z,995.38
2019-05-19T03:39:02.433Z,995.37
2019-05-19T03:40:15.346Z,995.36
2019-05-19T03:41:13.405Z,995.32
2019-05-19T03:42:24.574Z,995.31
2019-05-19T03:43:34.410Z,995.33
2019-05-19T03:44:26.128Z,995.27
2019-05-19T03:45:45.483Z,995.29
2019-05-19T03:46:33.510Z,995.29
2019-05-19T03:47:53.075Z,995.30
2019-05-19T03:48:57.487Z,995.30
2019-05-19T03:50:01.589Z,995.33
2019-05-19T03:51:03.848Z,995.33
2019-05-19T03:52:07.540Z,995.34
2019-05-19T03:53:18.608Z,995.32
2019-05-19T03:54:23.121Z,995.31
2019-05-19T03:55:24.559Z,995.32
2019-05-19T03:56:25.797Z,995.34
2019-05-19T03:57:42.799Z,995.34
2019-05-19T03:58:42.295Z,995.32
2019-05-19T03:59:48.198Z,995.30
2019-05-19T04:00:58.897Z,995.29
2019-05-19T04:01:55.531Z,995.31
2019-05-19T04:03:04.254Z,995.32
2019-05-19T04:04:08.240Z,995.35
2019-05-19T04:05:16.658Z,995.32
2019-05-19T04:06:30.472Z,995.37
2019-05-19T04:07:21.567Z,995.31
2019-05-19T04:08:36.837Z,995.34
2019-05-19T04:09:34.608Z,995.36
2019-05-19T04:10:45.460Z,995.36
2019-05-19T04:11:48.321Z,995.40
2019-05-19T04:13:05.743Z,995.34
2019-05-19T04:14:00.324Z,995.38
2019-05-19T04:15:06.366Z,995.37
2019-05-19T04:16:11.393Z,995.35
2019-05-19T04:17:16.109Z,995.35
2019-05-19T04:18:18.090Z,995.31
2019-05-19T04:19:25.139Z,995.32
2019-05-19T04:20:31.385Z,995.31
2019-05-19T04:21:47.551Z,995.29
2019-05-19T04:22:52.000Z,995.30
2019-05-19T04:23:53.526Z,995.34
2019-05-19T04:24:50.772Z,995.31
2019-05-19T04:25:59.377Z,995.34
2019-05-19T04:27:19.665Z,995.28
2019-05-19T04:28:23.453Z,995.34
2019-05-19T04:29:21.521Z,995.35
2019-05-19T04:30:26.853Z,995.34
2019-05-19T04:31:33.306Z,995.31
2019-05-19T04:32:41.200Z,995.33
2019-05-19T04:33:46.633Z,995.35
2019-05-19T04:34:52.482Z,995.31
2019-05-19T04:35:48.283Z,995.34
2019-05-19T04:37:04.268Z,995.32
2019-05-19T04:38:02.695Z,995.33
2019-05-19T04:39:11.346Z,995.28
2019-05-19T04:40:15.446Z,995.27
2019-05-19T04:41:20.680Z,995.28
2019-05-19T04:42:26.327Z,995.25
2019-05-19T04:43:29.843Z,995.31
2019-05-19T04:44:43.223Z,995.35
2019-05-19T04:45:31.461Z,995.30
2019-05-19T04:46:49.281Z,995.33
2019-05-19T04:47:48.057Z,995.34
2019-05-19T04:49:04.142Z,995.33
2019-05-19T04:50:04.257Z,995.33
2019-05-19T04:51:13.578Z,995.34
2019-05-19T04:52:26.180Z,995.35
2019-05-19T04:53:17.071Z,995.33
2019-05-19T04:54:21.484Z,995.37
2019-05-19T04:55:28.457Z,995.37
2019-05-19T04:56:33.168Z,995.41
2019-05-19T04:57:46.499Z,995.41
2019-05-19T04:58:46.392Z,995.43
2019-05-19T04:59:56.643Z,995.45
2019-05-19T05:01:00.335Z,995.43
2019-05-19T05:02:09.554Z,995.41
2019-05-19T05:03:03.315Z,995.41
2019-05-19T05:04:22.680Z,995.42
2019-05-19T05:05:14.388Z,995.46
2019-05-19T05:06:24.329Z,995.44
2019-05-19T05:07:32.629Z,995.41
2019-05-19T05:08:40.830Z,995.41
2019-05-19T05:09:51.487Z,995.39
2019-05-19T05:10:46.170Z,995.40
2019-05-19T05:11:51.910Z,995.41
2019-05-19T05:13:04.620Z,995.41
2019-05-19T05:14:07.219Z,995.41
2019-05-19T05:15:01.144Z,995.42
2019-05-19T05:16:25.113Z,995.41
2019-05-19T05:17:26.089Z,995.41
2019-05-19T05:18:32.396Z,995.41
2019-05-19T05:19:39.062Z,995.40
2019-05-19T05:20:33.538Z,995.39
2019-05-19T05:21:47.167Z,995.42
2019-05-19T05:23:01.737Z,995.43
2019-05-19T05:23:47.391Z,995.48
2019-05-19T05:24:56.095Z,995.47
2019-05-19T05:26:04.497Z,995.45
2019-05-19T05:27:07.372Z,995.44
2019-05-19T05:28:11.587Z,995.46
2019-05-19T05:29:23.056Z,995.49
2019-05-19T05:30:19.579Z,995.52
2019-05-19T05:31:33.003Z,995.48
2019-05-19T05:32:38.227Z,995.51
2019-05-19T05:33:41.309Z,995.51
2019-05-19T05:34:45.103Z,995.47
2019-05-19T05:35:51.367Z,995.47
2019-05-19T05:37:07.646Z,995.42
2019-05-19T05:38:08.574Z,995.44
2019-05-19T05:39:09.094Z,995.45
2019-05-19T05:40:15.253Z,995.41
2019-05-19T05:41:24.577Z,995.42
2019-05-19T05:42:31.559Z,995.44
2019-05-19T05:43:32.571Z,995.43
2019-05-19T05:44:32.267Z,995.44
2019-05-19T05:45:53.060Z,995.46
2019-05-19T05:46:49.181Z,995.45
2019-05-19T05:47:54.305Z,995.41
2019-05-19T05:49:03.325Z,995.44
2019-05-19T05:50:02.104Z,995.46
2019-05-19T05:51:13.375Z,995.48
2019-05-19T05:52:37.222Z,995.48
2019-05-19T05:53:35.299Z,995.49
2019-05-19T05:54:30.085Z,995.50
2019-05-19T05:55:27.428Z,995.50
2019-05-19T05:56:41.668Z,995.48
2019-05-19T05:57:57.243Z,995.48
2019-05-19T05:58:52.436Z,995.44
2019-05-19T05:59:58.385Z,995.48
2019-05-19T06:00:58.696Z,995.50
2019-05-19T06:02:06.694Z,995.50
2019-05-19T06:03:20.648Z,995.48
2019-05-19T06:04:15.307Z,995.50
2019-05-19T06:05:26.780Z,995.47
2019-05-19T06:06:22.489Z,995.43
2019-05-19T06:07:27.306Z,995.45
2019-05-19T06:08:44.106Z,995.42
2019-05-19T06:09:46.162Z,995.46
2019-05-19T06:10:48.423Z,995.45
2019-05-19T06:12:00.716Z,995.47
2019-05-19T06:13:06.665Z,995.48
2019-05-19T06:14:07.795Z,995.51
2019-05-19T06:15:21.216Z,995.51
2019-05-19T06:16:23.172Z,995.51
2019-05-19T06:17:40.794Z,995.51
2019-05-19T06:18:35.166Z,995.50
2019-05-19T06:19:53.502Z,995.52
2019-05-19T06:20:57.300Z,995.48
2019-05-19T06:21:59.455Z,995.47
2019-05-19T06:22:57.035Z,995.48
2019-05-19T06:23:52.001Z,995.49
2019-05-19T06:25:04.908Z,995.44
2019-05-19T06:26:33.787Z,995.44
2019-05-19T06:27:22.221Z,995.45
2019-05-19T06:28:32.778Z,995.48
2019-05-19T06:29:31.655Z,995.45
2019-05-19T06:30:43.642Z,995.48
2019-05-19T06:31:40.168Z,995.49
2019-05-19T06:33:19.705Z,995.54
2019-05-19T06:34:01.791Z,995.50
2019-05-19T06:35:59.243Z,995.51
2019-05-19T06:37:11.539Z,995.53
2019-05-19T06:38:40.637Z,995.51
2019-05-19T06:39:22.716Z,995.53
2019-05-19T06:40:49.567Z,995.54
2019-05-19T06:41:14.125Z,995.53
2019-05-19T06:42:34.822Z,995.57
2019-05-19T06:43:56.020Z,995.53
2019-05-19T06:44:56.130Z,995.58
2019-05-19T06:46:12.014Z,995.59
2019-05-19T06:46:48.058Z,995.54
2019-05-19T06:48:23.187Z,995.55
2019-05-19T06:48:54.113Z,995.54
2019-05-19T06:50:23.201Z,995.49
2019-05-19T06:51:25.363Z,995.53
2019-05-19T06:52:22.196Z,995.51
2019-05-19T06:53:29.365Z,995.56
2019-05-19T06:54:14.005Z,995.52
2019-05-19T06:55:32.254Z,995.49
2019-05-19T06:56:36.456Z,995.50
2019-05-19T06:57:43.323Z,995.52
2019-05-19T06:58:44.347Z,995.51
2019-05-19T06:59:47.427Z,995.52
2019-05-19T07:00:53.476Z,995.49
2019-05-19T07:01:53.381Z,995.46
2019-05-19T07:03:15.709Z,995.48
2019-05-19T07:04:15.822Z,995.49
2019-05-19T07:05:14.598Z,995.46
2019-05-19T07:06:18.086Z,995.46
2019-05-19T07:07:27.516Z,995.42
2019-05-19T07:08:35.725Z,995.45
2019-05-19T07:09:34.231Z,995.43
2019-05-19T07:10:39.721Z,995.42
2019-05-19T07:11:50.071Z,995.43
2019-05-19T07:12:50.490Z,995.42
2019-05-19T07:14:07.800Z,995.41
2019-05-19T07:15:02.277Z,995.45
2019-05-19T07:16:11.807Z,995.45
2019-05-19T07:17:21.032Z,995.44
2019-05-19T07:18:15.916Z,995.46
2019-05-19T07:19:33.636Z,995.45
2019-05-19T07:20:31.393Z,995.48
2019-05-19T07:21:34.777Z,995.45
2019-05-19T07:22:42.650Z,995.48
2019-05-19T07:23:50.058Z,995.42
2019-05-19T07:25:05.826Z,995.44
2019-05-19T07:25:57.538Z,995.40
2019-05-19T07:27:06.252Z,995.41
2019-05-19T07:28:12.504Z,995.38
2019-05-19T07:29:17.578Z,995.36
2019-05-19T07:30:18.971Z,995.42
2019-05-19T07:31:25.425Z,995.42
2019-05-19T07:32:29.222Z,995.42
2019-05-19T07:33:31.892Z,995.43
2019-05-19T07:34:45.419Z,995.40
2019-05-19T07:35:49.518Z,995.38
2019-05-19T07:36:48.603Z,995.41
2019-05-19T07:38:06.918Z,995.39
2019-05-19T07:39:13.909Z,995.41
2019-05-19T07:40:11.049Z,995.43
2019-05-19T07:41:21.604Z,995.43
2019-05-19T07:42:19.254Z,995.41
2019-05-19T07:43:29.091Z,995.48
2019-05-19T07:44:31.045Z,995.44
2019-05-19T07:45:37.210Z,995.42
2019-05-19T07:46:41.002Z,995.39
2019-05-19T07:47:50.317Z,995.40
2019-05-19T07:48:59.027Z,995.36
2019-05-19T07:50:02.827Z,995.35
2019-05-19T07:51:16.344Z,995.40
2019-05-19T07:52:16.459Z,995.38
2019-05-19T07:53:20.978Z,995.31
2019-05-19T07:54:19.438Z,995.34
2019-05-19T07:55:24.057Z,995.30
2019-05-19T07:56:33.075Z,995.31
2019-05-19T07:57:41.168Z,995.31
2019-05-19T07:58:45.168Z,995.30
2019-05-19T07:59:45.689Z,995.29
2019-05-19T08:01:05.767Z,995.27
2019-05-19T08:02:04.751Z,995.27
2019-05-19T08:03:06.802Z,995.28
2019-05-19T08:04:08.052Z,995.27
2019-05-19T08:05:24.838Z,995.27
2019-05-19T08:06:40.522Z,995.26
2019-05-19T08:07:28.136Z,995.31
2019-05-19T08:08:39.401Z,995.31
2019-05-19T08:09:39.725Z,995.30
2019-05-19T08:10:49.140Z,995.30
2019-05-19T08:11:51.506Z,995.26
2019-05-19T08:13:01.238Z,995.26
2019-05-19T08:14:16.811Z,995.26
2019-05-19T08:15:11.193Z,995.25
2019-05-19T08:16:13.043Z,995.26
2019-05-19T08:17:25.734Z,995.23
2019-05-19T08:18:21.962Z,995.22
2019-05-19T08:19:28.415Z,995.21
2019-05-19T08:20:33.447Z,995.25
2019-05-19T08:21:41.026Z,995.21
2019-05-19T08:22:51.388Z,995.23
2019-05-19T08:23:59.226Z,995.21
2019-05-19T08:25:01.123Z,995.21
2019-05-19T08:26:05.663Z,995.21
2019-05-19T08:27:10.868Z,995.22
2019-05-19T08:28:13.324Z,995.19
2019-05-19T08:29:19.269Z,995.24
2019-05-19T08:30:30.485Z,995.27
2019-05-19T08:31:37.823Z,995.24
2019-05-19T08:32:46.835Z,995.27
2019-05-19T08:33:46.964Z,995.25
2019-05-19T08:34:47.369Z,995.23
2019-05-19T08:36:00.791Z,995.29
2019-05-19T08:37:12.669Z,995.26
2019-05-19T08:38:12.981Z,995.25
2019-05-19T08:39:12.783Z,995.26
2019-05-19T08:40:27.953Z,995.29
2019-05-19T08:41:34.097Z,995.31
2019-05-19T08:42:35.541Z,995.30
2019-05-19T08:43:45.684Z,995.33
2019-05-19T08:44:30.846Z,995.28
2019-05-19T08:46:00.339Z,995.31
2019-05-19T08:46:55.531Z,995.28
2019-05-19T08:48:13.565Z,995.30
2019-05-19T08:49:16.746Z,995.27
2019-05-19T08:50:09.483Z,995.27
2019-05-19T08:51:40.004Z,995.28
2019-05-19T08:52:32.034Z,995.27
2019-05-19T08:53:53.123Z,995.26
2019-05-19T08:54:31.838Z,995.29
2019-05-19T08:55:43.623Z,995.29
2019-05-19T08:57:32.567Z,995.31
2019-05-19T08:58:11.995Z,995.29
2019-05-19T08:59:12.614Z,995.33
2019-05-19T09:00:26.342Z,995.30
2019-05-19T09:01:54.100Z,995.28
2019-05-19T09:02:34.139Z,995.30
2019-05-19T09:03:37.734Z,995.26
2019-05-19T09:04:51.470Z,995.25
2019-05-19T09:05:47.816Z,995.27
2019-05-19T09:07:01.715Z,995.25
2019-05-19T09:07:58.341Z,995.22
2019-05-19T09:09:18.733Z,995.24
2019-05-19T09:10:09.620Z,995.26
2019-05-19T09:11:07.883Z,995.24
2019-05-19T09:12:18.651Z,995.27
2019-05-19T09:13:15.578Z,995.24
2019-05-19T09:14:21.010Z,995.24
2019-05-19T09:15:34.229Z,995.22
2019-05-19T09:16:40.174Z,995.21
2019-05-19T09:17:54.393Z,995.22
2019-05-19T09:18:47.567Z,995.22
2019-05-19T09:19:56.682Z,995.18
2019-05-19T09:21:00.479Z,995.18
2019-05-19T09:22:01.203Z,995.18
2019-05-19T09:23:35.104Z,995.18
2019-05-19T09:24:30.150Z,995.16
2019-05-19T09:25:17.295Z,995.14
2019-05-19T09:26:24.680Z,995.20
2019-05-19T09:27:35.749Z,995.12
2019-05-19T09:28:31.769Z,995.12
2019-05-19T09:29:52.346Z,995.03
2019-05-19T09:30:49.079Z,995.10
2019-05-19T09:31:47.141Z,995.08
2019-05-19T09:32:58.720Z,995.14
2019-05-19T09:34:01.896Z,995.11
2019-05-19T09:35:07.956Z,995.14
2019-05-19T09:36:22.084Z,995.15
2019-05-19T09:37:21.680Z,995.12
2019-05-19T09:38:14.826Z,995.12
2019-05-19T09:39:28.352Z,995.13
2019-05-19T09:40:39.627Z,995.11
2019-05-19T09:41:38.193Z,995.14
2019-05-19T09:42:43.835Z,995.13
2019-05-19T09:43:45.993Z,995.10
2019-05-19T09:45:01.985Z,995.11
2019-05-19T09:46:14.147Z,995.14
2019-05-19T09:47:07.721Z,995.13
2019-05-19T09:48:23.295Z,995.13
2019-05-19T09:49:13.163Z,995.11
2019-05-19T09:50:29.151Z,995.13
2019-05-19T09:51:36.422Z,995.09
2019-05-19T09:52:45.442Z,995.08
2019-05-19T09:53:42.479Z,995.09
2019-05-19T09:54:45.920Z,995.11
2019-05-19T09:55:52.634Z,995.05
2019-05-19T09:57:01.864Z,995.07
2019-05-19T09:58:03.909Z,995.08
2019-05-19T09:59:10.874Z,995.05
2019-05-19T10:00:13.006Z,995.03
2019-05-19T10:01:18.675Z,995.04
2019-05-19T10:02:25.042Z,995.05
2019-05-19T10:03:22.372Z,995.06
2019-05-19T10:04:31.800Z,995.07
2019-05-19T10:05:41.024Z,995.06
2019-05-19T10:06:59.352Z,995.04
2019-05-19T10:07:53.229Z,995.00
2019-05-19T10:08:58.654Z,994.97
2019-05-19T10:10:07.783Z,995.01
2019-05-19T10:11:09.727Z,994.97
2019-05-19T10:12:13.322Z,995.01
2019-05-19T10:13:16.808Z,994.96
2019-05-19T10:14:22.240Z,994.95
2019-05-19T10:15:25.322Z,994.88
2019-05-19T10:16:33.527Z,994.91
2019-05-19T10:17:43.926Z,994.88
2019-05-19T10:18:44.358Z,994.86
2019-05-19T10:19:55.765Z,994.88
2019-05-19T10:20:50.503Z,994.84
2019-05-19T10:21:59.985Z,994.82
2019-05-19T10:23:17.085Z,994.83
2019-05-19T10:24:11.364Z,994.84
2019-05-19T10:25:21.557Z,994.77
2019-05-19T10:26:24.886Z,994.78
2019-05-19T10:27:26.635Z,994.78
2019-05-19T10:28:34.936Z,994.80
2019-05-19T10:29:42.009Z,994.74
2019-05-19T10:30:52.664Z,994.82
2019-05-19T10:31:57.180Z,994.81
2019-05-19T10:32:52.985Z,994.77
2019-05-19T10:34:07.848Z,994.83
2019-05-19T10:35:06.118Z,994.81
2019-05-19T10:36:25.363Z,994.77
2019-05-19T10:37:16.260Z,994.75
2019-05-19T10:38:28.757Z,994.74
2019-05-19T10:39:31.527Z,994.74
2019-05-19T10:40:45.359Z,994.78
2019-05-19T10:41:32.471Z,994.71
2019-05-19T10:42:48.242Z,994.74
2019-05-19T10:43:55.617Z,994.72
2019-05-19T10:44:57.366Z,994.70
2019-05-19T10:46:08.753Z,994.70
2019-05-19T10:47:04.545Z,994.72
2019-05-19T10:48:13.772Z,994.69
2019-05-19T10:49:21.558Z,994.70
2019-05-19T10:50:29.052Z,994.67
2019-05-19T10:51:28.951Z,994.68
2019-05-19T10:52:39.909Z,994.69
2019-05-19T10:53:44.015Z,994.70
2019-05-19T10:54:52.642Z,994.64
2019-05-19T10:55:53.550Z,994.69
2019-05-19T10:57:03.596Z,994.68
2019-05-19T10:58:14.351Z,994.67
2019-05-19T10:59:11.595Z,994.65
2019-05-19T11:00:15.806Z,994.69
2019-05-19T11:01:26.969Z,994.61
2019-05-19T11:02:37.633Z,994.63
2019-05-19T11:03:29.850Z,994.61
2019-05-19T11:04:39.685Z,994.60
2019-05-19T11:05:50.343Z,994.57
2019-05-19T11:06:50.041Z,994.56
2019-05-19T11:07:48.622Z,994.55
2019-05-19T11:09:09.522Z,994.56
2019-05-19T11:10:09.731Z,994.58
2019-05-19T11:11:16.080Z,994.55
2019-05-19T11:12:20.285Z,994.56
2019-05-19T11:13:31.463Z,994.55
2019-05-19T11:14:33.813Z,994.48
2019-05-19T11:15:40.589Z,994.52
2019-05-19T11:16:43.078Z,994.48
2019-05-19T11:17:47.048Z,994.49
2019-05-19T11:18:53.107Z,994.54
2019-05-19T11:20:00.185Z,994.52
2019-05-19T11:21:06.549Z,994.50
2019-05-19T11:22:06.018Z,994.52
2019-05-19T11:23:20.167Z,994.55
2019-05-19T11:24:16.432Z,994.48
2019-05-19T11:25:34.519Z,994.58
2019-05-19T11:26:28.268Z,994.51
2019-05-19T11:27:33.404Z,994.46
2019-05-19T11:28:50.312Z,994.47
2019-05-19T11:29:49.892Z,994.48
2019-05-19T11:30:51.245Z,994.48
2019-05-19T11:32:00.460Z,994.46
2019-05-19T11:33:09.781Z,994.50
2019-05-19T11:34:17.467Z,994.49
2019-05-19T11:35:27.305Z,994.50
2019-05-19T11:36:39.812Z,994.50
2019-05-19T11:37:42.067Z,994.51
2019-05-19T11:38:39.818Z,994.51
2019-05-19T11:39:41.768Z,994.50
2019-05-19T11:41:10.142Z,994.50
2019-05-19T11:41:59.089Z,994.53
2019-05-19T11:42:54.569Z,994.54
2019-05-19T11:44:06.995Z,994.50
2019-05-19T11:45:04.637Z,994.48
2019-05-19T11:46:06.695Z,994.47
2019-05-19T11:47:25.032Z,994.46
2019-05-19T11:48:33.740Z,994.49
2019-05-19T11:49:46.549Z,994.49
2019-05-19T11:50:33.654Z,994.49
2019-05-19T11:51:38.061Z,994.48
2019-05-19T11:52:45.444Z,994.49
2019-05-19T11:53:46.276Z,994.52
2019-05-19T11:55:09.731Z,994.52
2019-05-19T11:56:06.259Z,994.52
2019-05-19T11:57:18.853Z,994.51
2019-05-19T11:58:15.074Z,994.51
2019-05-19T11:59:30.950Z,994.50
2019-05-19T12:00:33.520Z,994.51
2019-05-19T12:01:32.217Z,994.51
2019-05-19T12:03:29.851Z,994.51
2019-05-19T12:04:23.919Z,994.50
2019-05-19T12:05:33.798Z,994.46
2019-05-19T12:06:41.652Z,994.49
2019-05-19T12:07:41.660Z,994.49
2019-05-19T12:08:35.316Z,994.46
2019-05-19T12:09:43.612Z,994.46
2019-05-19T12:10:50.995Z,994.47
2019-05-19T12:11:38.250Z,994.48
2019-05-19T12:12:48.242Z,994.48
2019-05-19T12:14:19.488Z,994.48
2019-05-19T12:15:21.952Z,994.49
2019-05-19T12:16:32.703Z,994.48
2019-05-19T12:17:00.353Z,994.45
2019-05-19T12:18:21.770Z,994.48
2019-05-19T12:19:37.027Z,994.46
2019-05-19T12:20:30.705Z,994.48
2019-05-19T12:21:50.762Z,994.47
2019-05-19T12:22:51.703Z,994.45
2019-05-19T12:23:45.773Z,994.48
2019-05-19T12:24:44.332Z,994.49
2019-05-19T12:25:38.433Z,994.47
2019-05-19T12:27:05.543Z,994.50
2019-05-19T12:28:01.656Z,994.49
2019-05-19T12:29:19.889Z,994.52
2019-05-19T12:30:23.899Z,994.55
2019-05-19T12:31:38.853Z,994.57
2019-05-19T12:32:33.429Z,994.56
2019-05-19T12:34:00.263Z,994.57
2019-05-19T12:34:42.365Z,994.57
2019-05-19T12:35:42.154Z,994.59
2019-05-19T12:36:57.731Z,994.59
2019-05-19T12:37:53.430Z,994.61
2019-05-19T12:38:54.665Z,994.60
2019-05-19T12:40:02.158Z,994.61
2019-05-19T12:41:20.382Z,994.59
2019-05-19T12:42:28.174Z,994.59
2019-05-19T12:43:17.235Z,994.60
2019-05-19T12:44:24.909Z,994.61
2019-05-19T12:45:26.763Z,994.60
2019-05-19T12:46:40.895Z,994.62
2019-05-19T12:47:50.431Z,994.63
2019-05-19T12:48:42.142Z,994.62
2019-05-19T12:49:50.453Z,994.64
2019-05-19T12:50:58.539Z,994.59
2019-05-19T12:52:10.220Z,994.65
2019-05-19T12:53:03.582Z,994.66
2019-05-19T12:54:07.069Z,994.63
2019-05-19T12:55:27.144Z,994.67
2019-05-19T12:56:39.167Z,994.70
2019-05-19T12:57:40.259Z,994.68
2019-05-19T12:58:30.955Z,994.69
2019-05-19T12:59:47.951Z,994.73
2019-05-19T13:00:40.793Z,994.74
2019-05-19T13:02:00.992Z,994.74
2019-05-19T13:02:55.855Z,994.78
2019-05-19T13:03:56.599Z,994.80
2019-05-19T13:05:06.345Z,994.76
2019-05-19T13:06:09.190Z,994.82
2019-05-19T13:07:14.934Z,994.86
2019-05-19T13:08:18.011Z,994.83
2019-05-19T13:09:26.005Z,994.90
2019-05-19T13:10:36.259Z,994.90
2019-05-19T13:11:34.319Z,994.99
2019-05-19T13:12:50.190Z,995.03
2019-05-19T13:13:57.163Z,995.07
2019-05-19T13:14:54.505Z,995.10
2019-05-19T13:16:01.578Z,995.14
2019-05-19T13:17:11.319Z,995.20
2019-05-19T13:18:16.746Z,995.25
2019-05-19T13:19:11.840Z,995.28
2019-05-19T13:20:20.969Z,995.31
2019-05-19T13:21:34.379Z,995.36
2019-05-19T13:22:36.229Z,995.36
2019-05-19T13:23:39.617Z,995.35
2019-05-19T13:24:43.312Z,995.39
2019-05-19T13:25:52.022Z,995.36
2019-05-19T13:26:56.096Z,995.36
2019-05-19T13:28:02.169Z,995.32
2019-05-19T13:29:06.793Z,995.40
2019-05-19T13:30:09.352Z,995.43
2019-05-19T13:31:14.991Z,995.45
2019-05-19T13:32:19.913Z,995.44
2019-05-19T13:33:33.962Z,995.53
2019-05-19T13:34:35.802Z,995.57
2019-05-19T13:35:35.200Z,995.65
2019-05-19T13:36:43.804Z,995.69
2019-05-19T13:37:50.364Z,995.75
2019-05-19T13:38:57.435Z,995.74